Valle Grande, Argentina
Current Conditions -  °F | °C
As of 3:00 AM on Thursday 27 Nov 2014 (Local Time) from SASJ Reporting Station
Light Rain Light Rain  
Wind Chill: 66°   Ceiling: 2800
Heat Index: 66°   Visibility: 6mi
Dew Point: 63°   Wind: 3mph
Humidity: 88%   Direction: 250°WSW
Pressure: 30.06"   Gusts: NA
Location:  23.47°S, 64.98°W
Report Text: SASJ 270600Z 25003KT 9000 -RA BKN028 OVC100 19/17 Q1018
Loading
Personal Weather Stations






























Interactive Weather Map New forecast layout! Learn more

10-Day Weather Forecast

Advertisements
Track Severe Weather on mobile